sensor_id;sensor_type;location;lat;lon;timestamp;pressure;altitude;pressure_sealevel;temperature;humidity
49393;BME280;35268;42.642;23.308;2023-04-28T00:01:14;94131.47;;;5.33;48.48
49393;BME280;35268;42.642;23.308;2023-04-28T00:03:40;94129.41;;;5.30;48.67
49393;BME280;35268;42.642;23.308;2023-04-28T00:06:06;94130.75;;;5.22;48.56
49393;BME280;35268;42.642;23.308;2023-04-28T00:08:31;94127.59;;;5.15;48.98
49393;BME280;35268;42.642;23.308;2023-04-28T00:10:57;94131.84;;;5.16;49.07
49393;BME280;35268;42.642;23.308;2023-04-28T00:13:22;94132.38;;;5.13;48.84
49393;BME280;35268;42.642;23.308;2023-04-28T00:15:50;94136.09;;;5.12;49.20
49393;BME280;35268;42.642;23.308;2023-04-28T00:18:19;94131.31;;;5.09;49.13
49393;BME280;35268;42.642;23.308;2023-04-28T00:20:45;94137.44;;;5.09;49.36
49393;BME280;35268;42.642;23.308;2023-04-28T00:23:11;94132.72;;;5.01;49.28
49393;BME280;35268;42.642;23.308;2023-04-28T00:25:37;94130.59;;;4.98;49.50
49393;BME280;35268;42.642;23.308;2023-04-28T00:28:02;94133.50;;;4.96;49.59
49393;BME280;35268;42.642;23.308;2023-04-28T00:30:31;94138.56;;;4.93;49.74
49393;BME280;35268;42.642;23.308;2023-04-28T00:32:56;94143.84;;;4.93;50.19
49393;BME280;35268;42.642;23.308;2023-04-28T00:35:22;94138.28;;;4.89;49.77
49393;BME280;35268;42.642;23.308;2023-04-28T00:37:47;94141.22;;;4.82;49.90
49393;BME280;35268;42.642;23.308;2023-04-28T00:40:13;94137.50;;;4.83;49.95
49393;BME280;35268;42.642;23.308;2023-04-28T00:42:38;94152.59;;;4.83;49.72
49393;BME280;35268;42.642;23.308;2023-04-28T00:45:04;94143.34;;;4.75;50.12
49393;BME280;35268;42.642;23.308;2023-04-28T00:47:33;94145.47;;;4.78;50.49
49393;BME280;35268;42.642;23.308;2023-04-28T00:50:00;94143.34;;;4.75;50.02
49393;BME280;35268;42.642;23.308;2023-04-28T00:52:27;94156.59;;;4.70;50.23
49393;BME280;35268;42.642;23.308;2023-04-28T00:54:53;94148.38;;;4.72;50.04
49393;BME280;35268;42.642;23.308;2023-04-28T00:57:19;94146.53;;;4.67;50.39
49393;BME280;35268;42.642;23.308;2023-04-28T00:59:44;94152.63;;;4.62;50.25
49393;BME280;35268;42.642;23.308;2023-04-28T01:02:10;94150.78;;;4.63;50.32
49393;BME280;35268;42.642;23.308;2023-04-28T01:04:42;94149.47;;;4.60;50.45
49393;BME280;35268;42.642;23.308;2023-04-28T01:07:08;94155.81;;;4.59;50.62
49393;BME280;35268;42.642;23.308;2023-04-28T01:09:33;94154.50;;;4.52;50.22
49393;BME280;35268;42.642;23.308;2023-04-28T01:11:59;94161.63;;;4.51;50.31
49393;BME280;35268;42.642;23.308;2023-04-28T01:14:24;94161.91;;;4.55;50.20
49393;BME280;35268;42.642;23.308;2023-04-28T01:16:50;94166.91;;;4.51;49.84
49393;BME280;35268;42.642;23.308;2023-04-28T01:19:22;94162.16;;;4.43;49.83
49393;BME280;35268;42.642;23.308;2023-04-28T01:21:48;94164.00;;;4.48;49.87
49393;BME280;35268;42.642;23.308;2023-04-28T01:24:14;94160.06;;;4.50;50.13
49393;BME280;35268;42.642;23.308;2023-04-28T01:26:40;94162.44;;;4.47;49.73
49393;BME280;35268;42.642;23.308;2023-04-28T01:29:05;94158.50;;;4.44;49.81
49393;BME280;35268;42.642;23.308;2023-04-28T01:31:31;94152.16;;;4.35;49.66
49393;BME280;35268;42.642;23.308;2023-04-28T01:33:56;94169.56;;;4.46;49.44
49393;BME280;35268;42.642;23.308;2023-04-28T01:36:22;94159.53;;;4.48;49.41
49393;BME280;35268;42.642;23.308;2023-04-28T01:38:49;94161.66;;;4.46;49.80
49393;BME280;35268;42.642;23.308;2023-04-28T01:41:14;94160.31;;;4.49;49.99
49393;BME280;35268;42.642;23.308;2023-04-28T01:43:40;94172.75;;;4.48;49.52
49393;BME280;35268;42.642;23.308;2023-04-28T01:46:08;94160.06;;;4.45;49.49
49393;BME280;35268;42.642;23.308;2023-04-28T01:48:33;94163.50;;;4.40;49.73
49393;BME280;35268;42.642;23.308;2023-04-28T01:50:59;94166.66;;;4.37;50.00
49393;BME280;35268;42.642;23.308;2023-04-28T01:53:24;94163.25;;;4.37;49.68
49393;BME280;35268;42.642;23.308;2023-04-28T01:55:50;94162.16;;;4.43;49.90
49393;BME280;35268;42.642;23.308;2023-04-28T01:58:15;94166.94;;;4.41;49.96
49393;BME280;35268;42.642;23.308;2023-04-28T02:00:41;94157.16;;;4.31;50.47
49393;BME280;35268;42.642;23.308;2023-04-28T02:03:06;94165.34;;;4.35;50.60
49393;BME280;35268;42.642;23.308;2023-04-28T02:05:32;94157.44;;;4.35;51.02
49393;BME280;35268;42.642;23.308;2023-04-28T02:07:57;94158.50;;;4.34;51.15
49393;BME280;35268;42.642;23.308;2023-04-28T02:10:23;94167.47;;;4.33;51.43
49393;BME280;35268;42.642;23.308;2023-04-28T02:12:48;94162.22;;;4.28;51.43
49393;BME280;35268;42.642;23.308;2023-04-28T02:15:13;94163.25;;;4.32;51.45
49393;BME280;35268;42.642;23.308;2023-04-28T02:17:39;94170.66;;;4.30;51.34
49393;BME280;35268;42.642;23.308;2023-04-28T02:20:06;94174.06;;;4.30;51.44
49393;BME280;35268;42.642;23.308;2023-04-28T02:22:31;94183.31;;;4.33;51.19
49393;BME280;35268;42.642;23.308;2023-04-28T02:24:57;94179.09;;;4.27;50.91
49393;BME280;35268;42.642;23.308;2023-04-28T02:27:22;94184.38;;;4.27;51.09
49393;BME280;35268;42.642;23.308;2023-04-28T02:29:48;94179.59;;;4.29;50.88
49393;BME280;35268;42.642;23.308;2023-04-28T02:32:13;94180.69;;;4.28;50.96
49393;BME280;35268;42.642;23.308;2023-04-28T02:34:39;94184.38;;;4.32;51.05
49393;BME280;35268;42.642;23.308;2023-04-28T02:37:04;94184.09;;;4.33;51.02
49393;BME280;35268;42.642;23.308;2023-04-28T02:39:29;94178.56;;;4.25;51.84
49393;BME280;35268;42.642;23.308;2023-04-28T02:41:57;94183.84;;;4.14;51.56
49393;BME280;35268;42.642;23.308;2023-04-28T02:44:22;94183.84;;;4.19;51.63
49393;BME280;35268;42.642;23.308;2023-04-28T02:46:48;94191.78;;;4.19;51.77
49393;BME280;35268;42.642;23.308;2023-04-28T02:49:13;94188.88;;;4.16;51.54
49393;BME280;35268;42.642;23.308;2023-04-28T02:51:39;94194.66;;;4.18;51.40
49393;BME280;35268;42.642;23.308;2023-04-28T02:54:04;94191.47;;;4.11;52.01
49393;BME280;35268;42.642;23.308;2023-04-28T02:56:30;94195.47;;;4.13;51.43
49393;BME280;35268;42.642;23.308;2023-04-28T02:58:55;94193.09;;;4.12;51.28
49393;BME280;35268;42.642;23.308;2023-04-28T03:01:21;94198.88;;;4.14;51.26
49393;BME280;35268;42.642;23.308;2023-04-28T03:03:47;94194.91;;;4.06;51.10
49393;BME280;35268;42.642;23.308;2023-04-28T03:06:12;94203.91;;;4.05;51.02
49393;BME280;35268;42.642;23.308;2023-04-28T03:08:38;94205.75;;;4.10;50.80
49393;BME280;35268;42.642;23.308;2023-04-28T03:11:03;94193.34;;;4.05;50.43
49393;BME280;35268;42.642;23.308;2023-04-28T03:13:29;94206.00;;;4.13;50.73
49393;BME280;35268;42.642;23.308;2023-04-28T03:15:54;94206.81;;;4.14;50.52
49393;BME280;35268;42.642;23.308;2023-04-28T03:18:20;94198.63;;;4.10;50.46
49393;BME280;35268;42.642;23.308;2023-04-28T03:20:47;94200.75;;;4.03;50.28
49393;BME280;35268;42.642;23.308;2023-04-28T03:23:13;94205.47;;;4.01;50.32
49393;BME280;35268;42.642;23.308;2023-04-28T03:25:38;94206.53;;;4.10;50.45
49393;BME280;35268;42.642;23.308;2023-04-28T03:28:04;94216.81;;;4.07;50.25
49393;BME280;35268;42.642;23.308;2023-04-28T03:30:30;94225.00;;;4.05;50.39
49393;BME280;35268;42.642;23.308;2023-04-28T03:32:55;94223.44;;;4.09;50.57
49393;BME280;35268;42.642;23.308;2023-04-28T03:35:21;94228.69;;;4.04;50.07
49393;BME280;35268;42.642;23.308;2023-04-28T03:37:46;94240.31;;;4.03;50.18
49393;BME280;35268;42.642;23.308;2023-04-28T03:40:12;94235.28;;;4.07;50.15
49393;BME280;35268;42.642;23.308;2023-04-28T03:42:38;94236.09;;;4.07;50.34
49393;BME280;35268;42.642;23.308;2023-04-28T03:45:03;94246.09;;;4.10;50.58
49393;BME280;35268;42.642;23.308;2023-04-28T03:47:29;94239.75;;;4.06;49.69
49393;BME280;35268;42.642;23.308;2023-04-28T03:49:54;94238.72;;;4.12;49.92
49393;BME280;35268;42.642;23.308;2023-04-28T03:52:20;94252.97;;;4.16;49.45
49393;BME280;35268;42.642;23.308;2023-04-28T03:54:46;94266.19;;;4.21;49.82
49393;BME280;35268;42.642;23.308;2023-04-28T03:57:11;94259.84;;;4.28;49.38
49393;BME280;35268;42.642;23.308;2023-04-28T03:59:37;94254.56;;;4.28;49.56
49393;BME280;35268;42.642;23.308;2023-04-28T04:02:02;94258.78;;;4.29;49.10
49393;BME280;35268;42.642;23.308;2023-04-28T04:04:28;94255.88;;;4.35;48.65
49393;BME280;35268;42.642;23.308;2023-04-28T04:06:54;94269.88;;;4.36;48.90
49393;BME280;35268;42.642;23.308;2023-04-28T04:09:19;94269.34;;;4.44;48.47
49393;BME280;35268;42.642;23.308;2023-04-28T04:11:45;94275.13;;;4.51;48.36
49393;BME280;35268;42.642;23.308;2023-04-28T04:14:10;94271.72;;;4.51;48.48
49393;BME280;35268;42.642;23.308;2023-04-28T04:16:36;94270.63;;;4.52;48.39
49393;BME280;35268;42.642;23.308;2023-04-28T04:19:01;94268.81;;;4.62;47.79
49393;BME280;35268;42.642;23.308;2023-04-28T04:21:27;94274.63;;;4.65;48.07
49393;BME280;35268;42.642;23.308;2023-04-28T04:23:52;94274.59;;;4.70;48.11
49393;BME280;35268;42.642;23.308;2023-04-28T04:26:18;94279.63;;;4.81;47.83
49393;BME280;35268;42.642;23.308;2023-04-28T04:28:43;94278.81;;;4.81;47.58
49393;BME280;35268;42.642;23.308;2023-04-28T04:31:09;94273.28;;;4.82;47.80
49393;BME280;35268;42.642;23.308;2023-04-28T04:33:34;94285.16;;;4.85;47.86
49393;BME280;35268;42.642;23.308;2023-04-28T04:36:01;94286.22;;;4.89;47.69
49393;BME280;35268;42.642;23.308;2023-04-28T04:38:27;94288.31;;;4.87;47.43
49393;BME280;35268;42.642;23.308;2023-04-28T04:40:52;94290.94;;;4.92;47.54
49393;BME280;35268;42.642;23.308;2023-04-28T04:43:18;94297.81;;;4.98;47.81
49393;BME280;35268;42.642;23.308;2023-04-28T04:45:43;94302.31;;;4.98;48.00
49393;BME280;35268;42.642;23.308;2023-04-28T04:48:10;94299.94;;;4.91;47.97
49393;BME280;35268;42.642;23.308;2023-04-28T04:50:35;94299.41;;;4.94;47.66
49393;BME280;35268;42.642;23.308;2023-04-28T04:53:01;94302.03;;;4.99;48.12
49393;BME280;35268;42.642;23.308;2023-04-28T04:55:26;94304.66;;;5.05;48.54
49393;BME280;35268;42.642;23.308;2023-04-28T04:57:52;94306.78;;;5.02;48.56
49393;BME280;35268;42.642;23.308;2023-04-28T05:00:17;94309.44;;;5.08;48.16
49393;BME280;35268;42.642;23.308;2023-04-28T05:02:43;94304.63;;;5.15;48.74
49393;BME280;35268;42.642;23.308;2023-04-28T05:05:09;94309.94;;;5.20;48.47
49393;BME280;35268;42.642;23.308;2023-04-28T05:07:34;94317.84;;;5.30;47.73
49393;BME280;35268;42.642;23.308;2023-04-28T05:10:03;94330.00;;;5.31;48.66
49393;BME280;35268;42.642;23.308;2023-04-28T05:12:29;94328.66;;;5.29;48.43
49393;BME280;35268;42.642;23.308;2023-04-28T05:14:54;94325.25;;;5.28;48.77
49393;BME280;35268;42.642;23.308;2023-04-28T05:17:20;94321.28;;;5.26;48.42
49393;BME280;35268;42.642;23.308;2023-04-28T05:19:45;94330.53;;;5.23;49.39
49393;BME280;35268;42.642;23.308;2023-04-28T05:22:11;94332.09;;;5.34;48.76
49393;BME280;35268;42.642;23.308;2023-04-28T05:24:36;94320.47;;;5.35;49.46
49393;BME280;35268;42.642;23.308;2023-04-28T05:27:02;94331.56;;;5.37;48.82
49393;BME280;35268;42.642;23.308;2023-04-28T05:29:27;94323.09;;;5.40;47.40
49393;BME280;35268;42.642;23.308;2023-04-28T05:31:53;94316.25;;;5.34;48.66
49393;BME280;35268;42.642;23.308;2023-04-28T05:34:18;94322.56;;;5.38;48.94
49393;BME280;35268;42.642;23.308;2023-04-28T05:36:44;94332.34;;;5.43;48.72
49393;BME280;35268;42.642;23.308;2023-04-28T05:39:10;94315.41;;;5.49;48.60
49393;BME280;35268;42.642;23.308;2023-04-28T05:41:35;94314.31;;;5.55;47.97
49393;BME280;35268;42.642;23.308;2023-04-28T05:44:01;94309.28;;;5.64;48.67
49393;BME280;35268;42.642;23.308;2023-04-28T05:46:27;94325.63;;;5.71;47.47
49393;BME280;35268;42.642;23.308;2023-04-28T05:48:52;94315.06;;;5.71;47.52
49393;BME280;35268;42.642;23.308;2023-04-28T05:51:18;94319.78;;;5.85;47.80
49393;BME280;35268;42.642;23.308;2023-04-28T05:53:43;94326.09;;;5.83;47.41
49393;BME280;35268;42.642;23.308;2023-04-28T05:56:13;94333.53;;;5.81;46.56
49393;BME280;35268;42.642;23.308;2023-04-28T05:58:39;94325.06;;;5.79;46.67
49393;BME280;35268;42.642;23.308;2023-04-28T06:01:04;94327.97;;;5.78;46.58
49393;BME280;35268;42.642;23.308;2023-04-28T06:03:30;94325.13;;;5.69;46.86
49393;BME280;35268;42.642;23.308;2023-04-28T06:05:55;94319.31;;;5.67;46.98
49393;BME280;35268;42.642;23.308;2023-04-28T06:08:21;94335.13;;;5.82;46.97
49393;BME280;35268;42.642;23.308;2023-04-28T06:10:46;94341.47;;;5.81;46.77
49393;BME280;35268;42.642;23.308;2023-04-28T06:13:12;94337.72;;;5.88;47.21
49393;BME280;35268;42.642;23.308;2023-04-28T06:15:37;94320.53;;;5.95;45.90
49393;BME280;35268;42.642;23.308;2023-04-28T06:18:03;94331.34;;;6.04;45.67
49393;BME280;35268;42.642;23.308;2023-04-28T06:20:31;94327.09;;;6.08;46.74
49393;BME280;35268;42.642;23.308;2023-04-28T06:22:56;94315.69;;;6.13;46.27
49393;BME280;35268;42.642;23.308;2023-04-28T06:25:22;94320.09;;;6.28;46.09
49393;BME280;35268;42.642;23.308;2023-04-28T06:27:47;94324.31;;;6.34;44.65
49393;BME280;35268;42.642;23.308;2023-04-28T06:30:17;94323.16;;;6.45;45.99
49393;BME280;35268;42.642;23.308;2023-04-28T06:32:44;94320.97;;;6.57;45.70
49393;BME280;35268;42.642;23.308;2023-04-28T06:35:09;94323.56;;;6.62;44.86
49393;BME280;35268;42.642;23.308;2023-04-28T06:37:35;94319.53;;;6.70;46.62
49393;BME280;35268;42.642;23.308;2023-04-28T06:40:01;94322.44;;;6.74;45.15
49393;BME280;35268;42.642;23.308;2023-04-28T06:42:26;94308.53;;;6.87;46.75
49393;BME280;35268;42.642;23.308;2023-04-28T06:44:52;94317.56;;;7.15;44.90
49393;BME280;35268;42.642;23.308;2023-04-28T06:47:17;94310.59;;;7.25;43.99
49393;BME280;35268;42.642;23.308;2023-04-28T06:49:43;94302.53;;;7.35;43.65
49393;BME280;35268;42.642;23.308;2023-04-28T06:52:09;94312.56;;;7.38;44.22
49393;BME280;35268;42.642;23.308;2023-04-28T06:54:35;94297.50;;;7.33;42.05
49393;BME280;35268;42.642;23.308;2023-04-28T06:57:02;94313.63;;;7.13;42.93
49393;BME280;35268;42.642;23.308;2023-04-28T06:59:28;94303.47;;;7.20;43.47
49393;BME280;35268;42.642;23.308;2023-04-28T07:01:53;94311.94;;;7.22;43.04
49393;BME280;35268;42.642;23.308;2023-04-28T07:04:19;94311.38;;;7.25;42.38
49393;BME280;35268;42.642;23.308;2023-04-28T07:06:44;94308.16;;;7.28;42.34
49393;BME280;35268;42.642;23.308;2023-04-28T07:09:10;94311.03;;;7.32;43.47
49393;BME280;35268;42.642;23.308;2023-04-28T07:11:35;94311.81;;;7.32;42.82
49393;BME280;35268;42.642;23.308;2023-04-28T07:14:01;94317.59;;;7.39;43.66
49393;BME280;35268;42.642;23.308;2023-04-28T07:16:26;94303.25;;;7.40;43.29
49393;BME280;35268;42.642;23.308;2023-04-28T07:18:52;94307.66;;;7.50;43.31
49393;BME280;35268;42.642;23.308;2023-04-28T07:21:17;94302.13;;;7.47;42.93
49393;BME280;35268;42.642;23.308;2023-04-28T07:23:43;94305.63;;;7.42;42.48
49393;BME280;35268;42.642;23.308;2023-04-28T07:26:10;94310.31;;;7.50;42.67
49393;BME280;35268;42.642;23.308;2023-04-28T07:28:35;94309.03;;;7.48;42.39
49393;BME280;35268;42.642;23.308;2023-04-28T07:31:01;94306.75;;;7.60;42.16
49393;BME280;35268;42.642;23.308;2023-04-28T07:33:26;94303.38;;;7.78;41.15
49393;BME280;35268;42.642;23.308;2023-04-28T07:35:52;94303.28;;;7.83;40.44
49393;BME280;35268;42.642;23.308;2023-04-28T07:38:17;94300.81;;;7.92;40.87
49393;BME280;35268;42.642;23.308;2023-04-28T07:40:45;94297.78;;;7.99;40.35
49393;BME280;35268;42.642;23.308;2023-04-28T07:43:10;94300.97;;;8.01;41.11
49393;BME280;35268;42.642;23.308;2023-04-28T07:45:38;94315.19;;;8.10;40.21
49393;BME280;35268;42.642;23.308;2023-04-28T07:48:03;94308.28;;;8.09;39.32
49393;BME280;35268;42.642;23.308;2023-04-28T07:50:29;94300.81;;;8.11;40.65
49393;BME280;35268;42.642;23.308;2023-04-28T07:52:55;94308.00;;;8.11;39.83
49393;BME280;35268;42.642;23.308;2023-04-28T07:55:22;94301.78;;;8.20;39.61
49393;BME280;35268;42.642;23.308;2023-04-28T07:57:47;94297.53;;;8.19;40.59
49393;BME280;35268;42.642;23.308;2023-04-28T08:00:14;94297.31;;;8.35;40.30
49393;BME280;35268;42.642;23.308;2023-04-28T08:02:39;94304.78;;;8.52;39.61
49393;BME280;35268;42.642;23.308;2023-04-28T08:05:07;94298.09;;;8.54;38.74
49393;BME280;35268;42.642;23.308;2023-04-28T08:07:34;94305.25;;;8.59;38.79
49393;BME280;35268;42.642;23.308;2023-04-28T08:09:59;94290.56;;;8.61;38.78
49393;BME280;35268;42.642;23.308;2023-04-28T08:12:26;94307.06;;;8.77;37.31
49393;BME280;35268;42.642;23.308;2023-04-28T08:14:51;94307.97;;;8.87;37.02
49393;BME280;35268;42.642;23.308;2023-04-28T08:17:17;94300.59;;;8.83;38.00
49393;BME280;35268;42.642;23.308;2023-04-28T08:19:42;94299.34;;;8.95;39.28
49393;BME280;35268;42.642;23.308;2023-04-28T08:22:10;94304.03;;;9.17;38.88
49393;BME280;35268;42.642;23.308;2023-04-28T08:24:36;94297.63;;;9.32;39.06
49393;BME280;35268;42.642;23.308;2023-04-28T08:27:01;94292.81;;;9.34;38.21
49393;BME280;35268;42.642;23.308;2023-04-28T08:29:28;94300.91;;;9.42;38.04
49393;BME280;35268;42.642;23.308;2023-04-28T08:31:57;94303.28;;;9.58;38.21
49393;BME280;35268;42.642;23.308;2023-04-28T08:34:23;94290.88;;;9.67;37.24
49393;BME280;35268;42.642;23.308;2023-04-28T08:36:48;94288.50;;;9.79;37.67
49393;BME280;35268;42.642;23.308;2023-04-28T08:39:13;94292.41;;;9.96;37.47
49393;BME280;35268;42.642;23.308;2023-04-28T08:41:40;94307.41;;;10.06;35.81
49393;BME280;35268;42.642;23.308;2023-04-28T08:44:10;94295.28;;;9.86;35.35
49393;BME280;35268;42.642;23.308;2023-04-28T08:46:40;94294.88;;;9.78;35.18
49393;BME280;35268;42.642;23.308;2023-04-28T08:49:11;94291.25;;;9.74;36.53
49393;BME280;35268;42.642;23.308;2023-04-28T08:51:43;94286.31;;;9.81;36.72
49393;BME280;35268;42.642;23.308;2023-04-28T08:54:10;94282.84;;;9.95;36.55
49393;BME280;35268;42.642;23.308;2023-04-28T08:56:38;94286.88;;;10.06;37.03
49393;BME280;35268;42.642;23.308;2023-04-28T08:59:04;94290.41;;;10.15;35.20
49393;BME280;35268;42.642;23.308;2023-04-28T09:01:32;94281.13;;;10.13;35.52
49393;BME280;35268;42.642;23.308;2023-04-28T09:04:02;94292.78;;;10.03;36.13
49393;BME280;35268;42.642;23.308;2023-04-28T09:06:34;94275.47;;;9.92;35.09
49393;BME280;35268;42.642;23.308;2023-04-28T09:09:21;94264.09;;;10.00;35.78
49393;BME280;35268;42.642;23.308;2023-04-28T09:11:55;94273.06;;;10.18;35.54
49393;BME280;35268;42.642;23.308;2023-04-28T09:14:27;94269.41;;;10.14;36.17
49393;BME280;35268;42.642;23.308;2023-04-28T09:16:53;94268.22;;;10.20;36.05
49393;BME280;35268;42.642;23.308;2023-04-28T09:19:19;94255.25;;;10.27;36.27
49393;BME280;35268;42.642;23.308;2023-04-28T09:22:03;94252.19;;;10.34;35.86
49393;BME280;35268;42.642;23.308;2023-04-28T09:24:37;94261.97;;;10.38;35.60
49393;BME280;35268;42.642;23.308;2023-04-28T09:27:11;94247.44;;;10.44;35.28
49393;BME280;35268;42.642;23.308;2023-04-28T09:29:37;94251.41;;;10.56;35.81
49393;BME280;35268;42.642;23.308;2023-04-28T09:32:23;94239.97;;;10.55;35.39
49393;BME280;35268;42.642;23.308;2023-04-28T09:34:53;94245.31;;;10.55;35.58
49393;BME280;35268;42.642;23.308;2023-04-28T09:37:25;94252.28;;;10.65;35.18
49393;BME280;35268;42.642;23.308;2023-04-28T09:39:52;94242.44;;;10.74;35.17
49393;BME280;35268;42.642;23.308;2023-04-28T09:42:38;94242.03;;;10.81;34.73
49393;BME280;35268;42.642;23.308;2023-04-28T10:03:14;94210.78;;;11.93;32.25
49393;BME280;35268;42.642;23.308;2023-04-28T10:05:40;94212.59;;;11.83;31.93
49393;BME280;35268;42.642;23.308;2023-04-28T10:08:05;94203.13;;;11.60;31.58
49393;BME280;35268;42.642;23.308;2023-04-28T10:10:32;94204.84;;;11.56;32.88
49393;BME280;35268;42.642;23.308;2023-04-28T10:12:58;94194.16;;;11.56;33.04
49393;BME280;35268;42.642;23.308;2023-04-28T10:15:24;94206.56;;;11.52;32.58
49393;BME280;35268;42.642;23.308;2023-04-28T10:17:50;94209.09;;;11.57;32.85
49393;BME280;35268;42.642;23.308;2023-04-28T10:20:17;94203.13;;;11.60;32.83
49393;BME280;35268;42.642;23.308;2023-04-28T10:25:38;94196.97;;;11.51;33.09
49393;BME280;35268;42.642;23.308;2023-04-28T10:28:08;94196.41;;;11.62;32.59
49393;BME280;35268;42.642;23.308;2023-04-28T10:30:33;94198.13;;;11.67;32.14
49393;BME280;35268;42.642;23.308;2023-04-28T10:35:45;94194.53;;;11.80;32.03
49393;BME280;35268;42.642;23.308;2023-04-28T10:38:15;94182.28;;;11.79;32.29
49393;BME280;35268;42.642;23.308;2023-04-28T10:40:47;94183.13;;;11.97;31.88
49393;BME280;35268;42.642;23.308;2023-04-28T10:43:35;94186.72;;;12.10;32.14
49393;BME280;35268;42.642;23.308;2023-04-28T10:46:00;94178.88;;;12.14;30.78
49393;BME280;35268;42.642;23.308;2023-04-28T10:56:07;94165.34;;;12.10;31.16
49393;BME280;35268;42.642;23.308;2023-04-28T10:58:32;94167.25;;;12.10;29.47
49393;BME280;35268;42.642;23.308;2023-04-28T11:06:32;94167.19;;;12.53;29.37
49393;BME280;35268;42.642;23.308;2023-04-28T11:11:36;94162.31;;;12.64;29.86
49393;BME280;35268;42.642;23.308;2023-04-28T11:16:50;94150.16;;;12.75;28.77
49393;BME280;35268;42.642;23.308;2023-04-28T11:19:20;94154.84;;;12.87;29.60
49393;BME280;35268;42.642;23.308;2023-04-28T11:21:47;94131.84;;;12.95;29.83
49393;BME280;35268;42.642;23.308;2023-04-28T11:24:13;94143.28;;;13.13;29.43
49393;BME280;35268;42.642;23.308;2023-04-28T11:26:39;94146.50;;;13.36;30.10
49393;BME280;35268;42.642;23.308;2023-04-28T11:29:05;94137.13;;;13.51;29.14
49393;BME280;35268;42.642;23.308;2023-04-28T11:31:32;94145.56;;;13.61;28.72
49393;BME280;35268;42.642;23.308;2023-04-28T11:34:03;94142.69;;;13.46;26.33
49393;BME280;35268;42.642;23.308;2023-04-28T11:36:39;94128.63;;;13.49;26.49
49393;BME280;35268;42.642;23.308;2023-04-28T11:39:06;94133.84;;;13.45;26.89
49393;BME280;35268;42.642;23.308;2023-04-28T11:41:41;94118.84;;;13.53;26.97
49393;BME280;35268;42.642;23.308;2023-04-28T11:44:14;94119.38;;;13.67;27.82
49393;BME280;35268;42.642;23.308;2023-04-28T11:46:47;94117.44;;;13.76;26.52
49393;BME280;35268;42.642;23.308;2023-04-28T11:49:16;94118.94;;;13.86;26.99
49393;BME280;35268;42.642;23.308;2023-04-28T11:51:42;94111.13;;;13.93;27.19
49393;BME280;35268;42.642;23.308;2023-04-28T11:54:10;94124.47;;;14.02;27.48
49393;BME280;35268;42.642;23.308;2023-04-28T11:56:45;94120.06;;;14.18;25.60
49393;BME280;35268;42.642;23.308;2023-04-28T11:59:11;94116.75;;;14.21;26.43
49393;BME280;35268;42.642;23.308;2023-04-28T12:01:48;94112.53;;;14.33;24.99
49393;BME280;35268;42.642;23.308;2023-04-28T12:09:28;94112.97;;;14.56;24.34
49393;BME280;35268;42.642;23.308;2023-04-28T12:12:01;94093.19;;;14.60;25.33
49393;BME280;35268;42.642;23.308;2023-04-28T12:14:27;94101.03;;;14.66;24.69
49393;BME280;35268;42.642;23.308;2023-04-28T12:16:53;94098.69;;;14.43;25.01
49393;BME280;35268;42.642;23.308;2023-04-28T12:19:18;94094.59;;;14.45;24.37
49393;BME280;35268;42.642;23.308;2023-04-28T12:22:06;94093.91;;;14.49;26.38
49393;BME280;35268;42.642;23.308;2023-04-28T12:24:32;94097.94;;;14.42;24.44
49393;BME280;35268;42.642;23.308;2023-04-28T12:27:19;94096.94;;;14.47;25.73
49393;BME280;35268;42.642;23.308;2023-04-28T12:29:49;94093.16;;;14.48;26.46
49393;BME280;35268;42.642;23.308;2023-04-28T12:32:16;94092.28;;;14.56;27.06
49393;BME280;35268;42.642;23.308;2023-04-28T12:34:44;94083.03;;;14.66;25.83
49393;BME280;35268;42.642;23.308;2023-04-28T12:37:10;94082.94;;;14.87;26.38
49393;BME280;35268;42.642;23.308;2023-04-28T12:39:38;94089.22;;;15.03;25.02
49393;BME280;35268;42.642;23.308;2023-04-28T12:42:04;94083.53;;;15.05;24.24
49393;BME280;35268;42.642;23.308;2023-04-28T12:44:39;94083.72;;;15.00;23.08
49393;BME280;35268;42.642;23.308;2023-04-28T12:47:06;94074.25;;;15.02;23.64
49393;BME280;35268;42.642;23.308;2023-04-28T12:49:33;94068.19;;;15.30;25.57
49393;BME280;35268;42.642;23.308;2023-04-28T12:51:59;94068.38;;;15.62;24.79
49393;BME280;35268;42.642;23.308;2023-04-28T12:54:24;94069.56;;;15.77;24.78
49393;BME280;35268;42.642;23.308;2023-04-28T12:56:50;94064.72;;;15.95;24.69
49393;BME280;35268;42.642;23.308;2023-04-28T12:59:16;94055.06;;;16.06;23.74
49393;BME280;35268;42.642;23.308;2023-04-28T13:01:42;94050.00;;;16.33;24.16
49393;BME280;35268;42.642;23.308;2023-04-28T13:04:08;94056.28;;;16.69;24.26
49393;BME280;35268;42.642;23.308;2023-04-28T13:06:33;94051.69;;;17.17;24.34
49393;BME280;35268;42.642;23.308;2023-04-28T13:08:59;94035.81;;;17.67;23.11
49393;BME280;35268;42.642;23.308;2023-04-28T13:11:25;94040.28;;;18.14;22.88
49393;BME280;35268;42.642;23.308;2023-04-28T13:13:52;94046.28;;;18.69;22.30
49393;BME280;35268;42.642;23.308;2023-04-28T13:16:17;94051.63;;;19.12;21.57
49393;BME280;35268;42.642;23.308;2023-04-28T13:18:43;94040.72;;;19.04;20.73
49393;BME280;35268;42.642;23.308;2023-04-28T13:21:08;94041.13;;;19.33;21.55
49393;BME280;35268;42.642;23.308;2023-04-28T13:23:34;94036.75;;;19.52;20.59
49393;BME280;35268;42.642;23.308;2023-04-28T13:25:59;94039.38;;;19.71;20.19
49393;BME280;35268;42.642;23.308;2023-04-28T13:28:25;94035.25;;;20.11;20.54
49393;BME280;35268;42.642;23.308;2023-04-28T13:30:50;94049.00;;;20.33;19.22
49393;BME280;35268;42.642;23.308;2023-04-28T13:33:16;94038.53;;;20.31;19.02
49393;BME280;35268;42.642;23.308;2023-04-28T13:35:41;94053.94;;;21.02;18.75
49393;BME280;35268;42.642;23.308;2023-04-28T13:38:07;94040.81;;;21.56;18.65
49393;BME280;35268;42.642;23.308;2023-04-28T13:40:33;94017.16;;;22.44;17.81
49393;BME280;35268;42.642;23.308;2023-04-28T13:42:58;94025.75;;;22.89;16.91